»·PEaware :: SWA986 KLAS-KPHX

SWA986 :: KLAS-KPHX

FLIGHT INFORMATION

Flight Status: Arrived
Operator:
Southwest Airlines
More flights by this operator :: More flights under this callsign
Pilot: Cody B. (17747)
Aircraft: BOEING 737-800
(B738)
More flights by this aircraft type
Origin: KLAS McCarran Intl
United States
Destination: KPHX Phoenix Sky Harbor Intl
United States
More flights between these airports :: More routes between these airports
Route: +PRFUM4 PRFUM WOTRO BRUSR1
File this flight plan on PilotEdge
Remarks:
Altitude:
(Current/Filed)
31,000ft
Speed:
(Current/Filed)
464kts
Departed: 23-Jul-18 04:17 PM
Arrived: 23-Jul-18 05:14 PM
Distance/Time
Traveled:
222nm/0:57
Distance/Time
To Go:
Arrived

Flight Plot

Page will automatically refresh every two minutes.

Flight plan parsing failed; only flown route is shown


Map Options




Map Legend


Flown Route
Filed Route
Departure Airport
Arrival Airport
Navaid (VOR, NDB)
Fix

Horizontal Profiles

Position Reports

Time Latitude Longitude Heading Altitude Ground
Speed
23-Jul-18 15:28 36.079926 -115.147119 57 2149ft 0kts
23-Jul-18 15:29 36.079926 -115.147119 57 2149ft 0kts
23-Jul-18 15:30 36.079926 -115.147119 57 2149ft 0kts
23-Jul-18 15:31 36.079926 -115.147119 57 2149ft 0kts
23-Jul-18 15:32 36.079926 -115.147119 57 2149ft 0kts
23-Jul-18 15:33 36.079926 -115.147119 57 2149ft 0kts
23-Jul-18 15:34 36.079926 -115.147119 57 2149ft 0kts
23-Jul-18 15:35 36.079926 -115.147119 57 2149ft 0kts
23-Jul-18 15:36 36.079926 -115.147119 57 2149ft 0kts
23-Jul-18 15:37 36.079926 -115.147119 57 2149ft 0kts
23-Jul-18 15:38 36.079926 -115.147119 57 2149ft 0kts
23-Jul-18 15:39 36.079926 -115.147119 57 2149ft 0kts
23-Jul-18 15:40 36.079926 -115.147119 57 2149ft 0kts
23-Jul-18 15:41 36.079926 -115.147119 57 2149ft 0kts
23-Jul-18 15:42 36.079926 -115.147119 57 2149ft 0kts
23-Jul-18 15:43 36.079926 -115.147119 57 2149ft 0kts
23-Jul-18 15:44 36.079926 -115.147119 57 2149ft 0kts
23-Jul-18 15:45 36.079926 -115.147119 57 2149ft 0kts
23-Jul-18 15:46 36.079926 -115.147119 57 2149ft 0kts
23-Jul-18 15:47 36.079926 -115.147119 57 2149ft 0kts
23-Jul-18 15:48 36.079926 -115.147119 57 2149ft 0kts
23-Jul-18 15:49 36.079926 -115.147119 57 2149ft 0kts
23-Jul-18 15:50 36.079926 -115.147119 57 2149ft 0kts
23-Jul-18 15:51 36.079926 -115.147119 57 2149ft 0kts
23-Jul-18 15:52 36.079926 -115.147119 57 2149ft 0kts
23-Jul-18 15:53 36.079926 -115.147119 57 2149ft 0kts
23-Jul-18 15:54 36.079926 -115.147119 57 2149ft 0kts
23-Jul-18 15:55 36.079926 -115.147119 57 2149ft 0kts
23-Jul-18 15:56 36.079878 -115.147296 61 2149ft 2kts
23-Jul-18 15:57 36.079942 -115.147875 153 2149ft 0kts
23-Jul-18 15:58 36.080009 -115.147910 155 2148ft 0kts
23-Jul-18 15:59 36.080009 -115.147910 155 2148ft 0kts
23-Jul-18 16:00 36.079750 -115.147774 157 2149ft 1kts
23-Jul-18 16:01 36.079268 -115.147510 156 2148ft 0kts
23-Jul-18 16:02 36.079268 -115.147510 156 2148ft 0kts
23-Jul-18 16:03 36.079268 -115.147510 156 2148ft 0kts
23-Jul-18 16:04 36.078928 -115.147363 171 2149ft 4kts
23-Jul-18 16:05 36.078600 -115.148741 273 2149ft 8kts
23-Jul-18 16:06 36.078803 -115.152183 265 2148ft 10kts
23-Jul-18 16:07 36.079960 -115.154073 335 2149ft 6kts
23-Jul-18 16:08 36.082006 -115.155260 334 2148ft 11kts
23-Jul-18 16:09 36.085743 -115.157421 334 2149ft 16kts
23-Jul-18 16:10 36.088595 -115.157067 24 2149ft 13kts
23-Jul-18 16:11 36.092923 -115.154587 25 2149ft 16kts
23-Jul-18 16:12 36.096433 -115.152573 25 2149ft 13kts
23-Jul-18 16:13 36.098006 -115.152565 301 2149ft 0kts
23-Jul-18 16:14 36.098006 -115.152565 301 2149ft 0kts
23-Jul-18 16:15 36.098006 -115.152565 301 2149ft 0kts
23-Jul-18 16:16 36.098009 -115.152571 300 2149ft 0kts
23-Jul-18 16:17 36.097732 -115.153931 219 2149ft 10kts
23-Jul-18 16:18 36.084598 -115.161550 204 2149ft 140kts
23-Jul-18 16:19 36.040188 -115.187664 204 3859ft 192kts
23-Jul-18 16:20 35.995856 -115.228694 247 5806ft 226kts
23-Jul-18 16:21 35.954355 -115.285460 187 7927ft 257kts
23-Jul-18 16:22 35.883953 -115.261434 141 10034ft 285kts
23-Jul-18 16:23 35.846576 -115.170212 106 11733ft 325kts
23-Jul-18 16:24 35.824018 -115.061226 88 14122ft 335kts
23-Jul-18 16:25 35.831642 -114.945426 84 16335ft 347kts
23-Jul-18 16:26 35.840505 -114.825340 85 18386ft 358kts
23-Jul-18 16:27 35.849494 -114.701849 85 18971ft 361kts
23-Jul-18 16:28 35.843635 -114.580320 118 18987ft 361kts
23-Jul-18 16:29 35.790022 -114.475205 123 20359ft 366kts
23-Jul-18 16:30 35.733774 -114.368887 123 22168ft 374kts
23-Jul-18 16:31 35.676842 -114.261754 124 22985ft 381kts
23-Jul-18 16:32 35.618726 -114.152780 124 24684ft 385kts
23-Jul-18 16:33 35.559282 -114.041735 124 26065ft 395kts
23-Jul-18 16:34 35.498520 -113.928656 124 27577ft 396kts
23-Jul-18 16:35 35.438230 -113.816815 124 28294ft 414kts
23-Jul-18 16:36 35.374305 -113.698624 124 29094ft 426kts
23-Jul-18 16:37 35.306857 -113.574466 124 29098ft 451kts
23-Jul-18 16:38 35.236279 -113.444913 125 29096ft 459kts
23-Jul-18 16:39 35.166273 -113.317060 125 29091ft 458kts
23-Jul-18 16:40 35.096044 -113.188232 125 29091ft 458kts
23-Jul-18 16:41 35.036932 -113.080688 126 29098ft 458kts
23-Jul-18 16:42 34.953883 -112.930710 126 29206ft 458kts
23-Jul-18 16:43 34.883370 -112.803859 126 29212ft 458kts
23-Jul-18 16:44 34.813667 -112.678893 126 28992ft 447kts
23-Jul-18 16:45 34.747613 -112.560781 126 27945ft 411kts
23-Jul-18 16:46 34.691065 -112.469018 140 27138ft 406kts
23-Jul-18 16:47 34.603804 -112.382645 141 25285ft 401kts
23-Jul-18 16:48 34.519955 -112.300941 142 23063ft 388kts
23-Jul-18 16:49 34.438949 -112.228811 161 21048ft 353kts
23-Jul-18 16:50 34.343044 -112.202082 168 19036ft 350kts
23-Jul-18 16:51 34.249422 -112.178164 168 17116ft 340kts
23-Jul-18 16:52 34.144956 -112.151498 167 15149ft 315kts
23-Jul-18 16:53 34.076732 -112.133139 161 13833ft 299kts
23-Jul-18 16:54 33.997576 -112.101048 160 12551ft 302kts
23-Jul-18 16:55 33.920964 -112.069898 160 10688ft 282kts
23-Jul-18 16:56 33.849317 -112.040771 160 9631ft 281kts
23-Jul-18 16:57 33.776729 -112.011323 161 8572ft 274kts
23-Jul-18 16:58 33.705643 -111.982535 161 7557ft 268kts
23-Jul-18 16:59 33.635433 -111.954162 161 7576ft 268kts
23-Jul-18 17:00 33.569938 -111.927664 162 7566ft 229kts
23-Jul-18 17:01 33.519524 -111.877839 128 7025ft 251kts
23-Jul-18 17:02 33.485032 -111.805758 87 7082ft 259kts
23-Jul-18 17:03 33.508065 -111.723035 69 6351ft 257kts
23-Jul-18 17:04 33.532125 -111.646630 69 6035ft 244kts
23-Jul-18 17:05 33.547926 -111.569924 120 6065ft 239kts
23-Jul-18 17:06 33.488461 -111.558176 188 6040ft 230kts
23-Jul-18 17:07 33.434008 -111.588944 234 6043ft 227kts
23-Jul-18 17:08 33.403976 -111.654346 258 6076ft 222kts
23-Jul-18 17:09 33.416594 -111.725452 289 5470ft 216kts
23-Jul-18 17:10 33.428879 -111.790916 273 4589ft 194kts
23-Jul-18 17:11 33.429272 -111.853848 267 3642ft 174kts
23-Jul-18 17:12 33.428083 -111.904294 271 2673ft 146kts
23-Jul-18 17:13 33.428885 -111.954315 269 2023ft 148kts
23-Jul-18 17:14 33.428815 -112.001650 273 1157ft 134kts
23-Jul-18 17:15 33.429149 -112.016515 335 1142ft 5kts
23-Jul-18 17:16 33.429670 -112.016518 22 1142ft 0kts
23-Jul-18 17:17 33.430393 -112.015887 33 1142ft 7kts
23-Jul-18 17:18 33.432250 -112.015178 27 1142ft 0kts
23-Jul-18 17:19 33.432829 -112.014739 68 1142ft 4kts
23-Jul-18 17:20 33.432898 -112.011411 90 1142ft 16kts
23-Jul-18 17:21 33.432892 -112.006363 90 1142ft 18kts
23-Jul-18 17:22 33.432840 -112.000470 89 1142ft 16kts
23-Jul-18 17:23 33.432907 -111.996066 60 1142ft 9kts
23-Jul-18 17:24 33.434274 -111.995572 49 1142ft 2kts
23-Jul-18 17:25 33.434432 -111.994879 88 1142ft 0kts
23-Jul-18 17:26 33.434432 -111.994877 88 1142ft 0kts
23-Jul-18 17:27 33.434431 -111.994877 88 1142ft 0kts

Navigation Log

Ident Type
Flight plan parsing failed, navigation log unavailable